sensor_id;sensor_type;location;lat;lon;timestamp;P1;durP1;ratioP1;P2;durP2;ratioP2
23898;SDS011;20544;50.018;20.010;2023-04-28T00:03:30;30.03;;;16.95;;
23898;SDS011;20544;50.018;20.010;2023-04-28T00:06:50;30.15;;;16.43;;
23898;SDS011;20544;50.018;20.010;2023-04-28T00:10:26;24.98;;;14.10;;
23898;SDS011;20544;50.018;20.010;2023-04-28T00:13:50;22.13;;;13.73;;
23898;SDS011;20544;50.018;20.010;2023-04-28T00:17:17;19.00;;;13.00;;
23898;SDS011;20544;50.018;20.010;2023-04-28T00:24:36;22.48;;;14.45;;
23898;SDS011;20544;50.018;20.010;2023-04-28T00:28:22;19.55;;;12.15;;
23898;SDS011;20544;50.018;20.010;2023-04-28T00:31:53;21.33;;;14.25;;
23898;SDS011;20544;50.018;20.010;2023-04-28T00:35:16;25.55;;;14.48;;
23898;SDS011;20544;50.018;20.010;2023-04-28T00:38:45;25.65;;;14.35;;
23898;SDS011;20544;50.018;20.010;2023-04-28T00:42:28;20.73;;;13.68;;
23898;SDS011;20544;50.018;20.010;2023-04-28T00:45:56;27.73;;;18.28;;
23898;SDS011;20544;50.018;20.010;2023-04-28T00:49:23;30.10;;;19.08;;
23898;SDS011;20544;50.018;20.010;2023-04-28T00:53:04;32.43;;;19.58;;
23898;SDS011;20544;50.018;20.010;2023-04-28T00:59:38;30.68;;;20.95;;
23898;SDS011;20544;50.018;20.010;2023-04-28T01:02:59;32.08;;;22.08;;
23898;SDS011;20544;50.018;20.010;2023-04-28T01:06:43;32.18;;;20.48;;
23898;SDS011;20544;50.018;20.010;2023-04-28T01:10:44;30.13;;;21.28;;
23898;SDS011;20544;50.018;20.010;2023-04-28T01:14:31;31.15;;;19.53;;
23898;SDS011;20544;50.018;20.010;2023-04-28T01:18:19;30.90;;;20.23;;
23898;SDS011;20544;50.018;20.010;2023-04-28T01:21:42;26.90;;;18.30;;
23898;SDS011;20544;50.018;20.010;2023-04-28T01:25:05;29.63;;;19.40;;
23898;SDS011;20544;50.018;20.010;2023-04-28T01:28:29;31.88;;;19.53;;
23898;SDS011;20544;50.018;20.010;2023-04-28T01:31:51;27.15;;;18.50;;
23898;SDS011;20544;50.018;20.010;2023-04-28T01:35:16;29.58;;;19.20;;
23898;SDS011;20544;50.018;20.010;2023-04-28T01:38:44;27.05;;;18.70;;
23898;SDS011;20544;50.018;20.010;2023-04-28T01:42:16;30.23;;;20.60;;
23898;SDS011;20544;50.018;20.010;2023-04-28T01:45:40;30.93;;;19.63;;
23898;SDS011;20544;50.018;20.010;2023-04-28T01:48:57;31.05;;;19.23;;
23898;SDS011;20544;50.018;20.010;2023-04-28T01:52:18;31.68;;;18.63;;
23898;SDS011;20544;50.018;20.010;2023-04-28T01:55:36;32.08;;;20.15;;
23898;SDS011;20544;50.018;20.010;2023-04-28T01:58:53;29.85;;;18.75;;
23898;SDS011;20544;50.018;20.010;2023-04-28T02:02:10;30.30;;;19.58;;
23898;SDS011;20544;50.018;20.010;2023-04-28T02:05:28;28.33;;;18.88;;
23898;SDS011;20544;50.018;20.010;2023-04-28T02:08:44;27.85;;;19.10;;
23898;SDS011;20544;50.018;20.010;2023-04-28T02:12:02;30.28;;;20.18;;
23898;SDS011;20544;50.018;20.010;2023-04-28T02:15:18;27.80;;;20.85;;
23898;SDS011;20544;50.018;20.010;2023-04-28T02:18:35;29.78;;;19.93;;
23898;SDS011;20544;50.018;20.010;2023-04-28T02:21:51;31.58;;;20.13;;
23898;SDS011;20544;50.018;20.010;2023-04-28T02:25:08;29.83;;;19.30;;
23898;SDS011;20544;50.018;20.010;2023-04-28T02:28:25;29.78;;;20.28;;
23898;SDS011;20544;50.018;20.010;2023-04-28T02:31:44;27.68;;;19.88;;
23898;SDS011;20544;50.018;20.010;2023-04-28T02:35:03;29.08;;;20.45;;
23898;SDS011;20544;50.018;20.010;2023-04-28T02:38:21;29.80;;;20.20;;
23898;SDS011;20544;50.018;20.010;2023-04-28T02:41:38;29.33;;;19.55;;
23898;SDS011;20544;50.018;20.010;2023-04-28T02:44:55;29.78;;;20.68;;
23898;SDS011;20544;50.018;20.010;2023-04-28T02:48:14;28.28;;;20.00;;
23898;SDS011;20544;50.018;20.010;2023-04-28T02:51:30;28.00;;;20.33;;
23898;SDS011;20544;50.018;20.010;2023-04-28T02:58:04;31.23;;;19.85;;
23898;SDS011;20544;50.018;20.010;2023-04-28T03:01:21;30.30;;;19.45;;
23898;SDS011;20544;50.018;20.010;2023-04-28T03:04:39;25.65;;;18.83;;
23898;SDS011;20544;50.018;20.010;2023-04-28T03:08:09;32.80;;;20.80;;
23898;SDS011;20544;50.018;20.010;2023-04-28T03:11:56;23.93;;;18.98;;
23898;SDS011;20544;50.018;20.010;2023-04-28T03:15:20;27.38;;;19.38;;
23898;SDS011;20544;50.018;20.010;2023-04-28T03:18:44;26.73;;;19.88;;
23898;SDS011;20544;50.018;20.010;2023-04-28T03:22:07;26.75;;;19.43;;
23898;SDS011;20544;50.018;20.010;2023-04-28T03:25:29;26.33;;;18.78;;
23898;SDS011;20544;50.018;20.010;2023-04-28T03:29:00;29.48;;;19.45;;
23898;SDS011;20544;50.018;20.010;2023-04-28T03:32:20;31.23;;;20.28;;
23898;SDS011;20544;50.018;20.010;2023-04-28T03:35:42;29.18;;;19.93;;
23898;SDS011;20544;50.018;20.010;2023-04-28T03:39:04;27.65;;;19.55;;
23898;SDS011;20544;50.018;20.010;2023-04-28T03:42:24;32.05;;;20.15;;
23898;SDS011;20544;50.018;20.010;2023-04-28T03:45:47;31.10;;;20.18;;
23898;SDS011;20544;50.018;20.010;2023-04-28T03:49:03;36.68;;;20.50;;
23898;SDS011;20544;50.018;20.010;2023-04-28T03:52:38;28.65;;;20.83;;
23898;SDS011;20544;50.018;20.010;2023-04-28T03:56:16;34.38;;;20.78;;
23898;SDS011;20544;50.018;20.010;2023-04-28T04:03:57;33.25;;;22.63;;
23898;SDS011;20544;50.018;20.010;2023-04-28T04:07:25;34.38;;;21.75;;
23898;SDS011;20544;50.018;20.010;2023-04-28T04:10:44;38.05;;;21.63;;
23898;SDS011;20544;50.018;20.010;2023-04-28T04:14:03;31.93;;;22.40;;
23898;SDS011;20544;50.018;20.010;2023-04-28T04:17:26;34.13;;;21.10;;
23898;SDS011;20544;50.018;20.010;2023-04-28T04:20:45;42.68;;;21.58;;
23898;SDS011;20544;50.018;20.010;2023-04-28T04:24:10;34.90;;;22.53;;
23898;SDS011;20544;50.018;20.010;2023-04-28T04:27:44;32.78;;;21.15;;
23898;SDS011;20544;50.018;20.010;2023-04-28T04:31:01;33.85;;;21.18;;
23898;SDS011;20544;50.018;20.010;2023-04-28T04:34:31;35.60;;;22.30;;
23898;SDS011;20544;50.018;20.010;2023-04-28T04:38:02;32.35;;;21.93;;
23898;SDS011;20544;50.018;20.010;2023-04-28T04:41:27;42.10;;;23.65;;
23898;SDS011;20544;50.018;20.010;2023-04-28T04:44:57;32.53;;;22.13;;
23898;SDS011;20544;50.018;20.010;2023-04-28T04:48:46;26.88;;;19.13;;
23898;SDS011;20544;50.018;20.010;2023-04-28T04:52:11;29.63;;;19.80;;
23898;SDS011;20544;50.018;20.010;2023-04-28T04:55:53;28.63;;;19.68;;
23898;SDS011;20544;50.018;20.010;2023-04-28T04:59:15;28.78;;;17.90;;
23898;SDS011;20544;50.018;20.010;2023-04-28T05:02:40;29.45;;;18.98;;
23898;SDS011;20544;50.018;20.010;2023-04-28T05:06:02;30.23;;;18.80;;
23898;SDS011;20544;50.018;20.010;2023-04-28T05:09:32;27.23;;;17.55;;
23898;SDS011;20544;50.018;20.010;2023-04-28T05:13:06;24.33;;;17.35;;
23898;SDS011;20544;50.018;20.010;2023-04-28T05:16:41;25.63;;;17.93;;
23898;SDS011;20544;50.018;20.010;2023-04-28T05:20:20;24.55;;;16.08;;
23898;SDS011;20544;50.018;20.010;2023-04-28T05:23:37;22.10;;;15.63;;
23898;SDS011;20544;50.018;20.010;2023-04-28T05:26:55;24.35;;;14.08;;
23898;SDS011;20544;50.018;20.010;2023-04-28T05:30:13;23.73;;;14.95;;
23898;SDS011;20544;50.018;20.010;2023-04-28T05:33:36;22.13;;;13.93;;
23898;SDS011;20544;50.018;20.010;2023-04-28T05:36:55;22.95;;;13.13;;
23898;SDS011;20544;50.018;20.010;2023-04-28T05:40:16;19.65;;;12.50;;
23898;SDS011;20544;50.018;20.010;2023-04-28T05:43:36;17.35;;;10.48;;
23898;SDS011;20544;50.018;20.010;2023-04-28T05:46:59;17.63;;;9.90;;
23898;SDS011;20544;50.018;20.010;2023-04-28T05:50:30;15.68;;;9.45;;
23898;SDS011;20544;50.018;20.010;2023-04-28T05:53:54;15.23;;;9.48;;
23898;SDS011;20544;50.018;20.010;2023-04-28T05:57:23;14.88;;;8.95;;
23898;SDS011;20544;50.018;20.010;2023-04-28T06:00:55;11.40;;;7.95;;
23898;SDS011;20544;50.018;20.010;2023-04-28T06:04:12;11.08;;;7.85;;
23898;SDS011;20544;50.018;20.010;2023-04-28T06:07:31;14.48;;;8.23;;
23898;SDS011;20544;50.018;20.010;2023-04-28T06:10:48;12.30;;;7.68;;
23898;SDS011;20544;50.018;20.010;2023-04-28T06:14:10;13.30;;;8.18;;
23898;SDS011;20544;50.018;20.010;2023-04-28T06:17:27;12.63;;;7.63;;
23898;SDS011;20544;50.018;20.010;2023-04-28T06:20:50;10.40;;;7.55;;
23898;SDS011;20544;50.018;20.010;2023-04-28T06:24:06;13.05;;;7.23;;
23898;SDS011;20544;50.018;20.010;2023-04-28T06:27:24;12.08;;;7.33;;
23898;SDS011;20544;50.018;20.010;2023-04-28T06:30:44;12.68;;;7.10;;
23898;SDS011;20544;50.018;20.010;2023-04-28T06:34:02;11.98;;;7.23;;
23898;SDS011;20544;50.018;20.010;2023-04-28T06:37:25;11.95;;;6.85;;
23898;SDS011;20544;50.018;20.010;2023-04-28T06:40:43;14.15;;;7.43;;
23898;SDS011;20544;50.018;20.010;2023-04-28T06:43:59;8.40;;;6.35;;
23898;SDS011;20544;50.018;20.010;2023-04-28T06:47:18;9.53;;;7.00;;
23898;SDS011;20544;50.018;20.010;2023-04-28T06:50:37;11.75;;;6.18;;
23898;SDS011;20544;50.018;20.010;2023-04-28T06:53:53;11.03;;;5.38;;
23898;SDS011;20544;50.018;20.010;2023-04-28T06:57:11;9.50;;;5.75;;
23898;SDS011;20544;50.018;20.010;2023-04-28T07:00:28;18.98;;;9.65;;
23898;SDS011;20544;50.018;20.010;2023-04-28T07:03:45;9.55;;;6.45;;
23898;SDS011;20544;50.018;20.010;2023-04-28T07:07:03;10.88;;;5.90;;
23898;SDS011;20544;50.018;20.010;2023-04-28T07:10:21;9.83;;;5.10;;
23898;SDS011;20544;50.018;20.010;2023-04-28T07:13:37;6.53;;;4.60;;
23898;SDS011;20544;50.018;20.010;2023-04-28T07:16:58;16.53;;;5.80;;
23898;SDS011;20544;50.018;20.010;2023-04-28T07:20:14;11.68;;;5.65;;
23898;SDS011;20544;50.018;20.010;2023-04-28T07:23:31;7.90;;;4.50;;
23898;SDS011;20544;50.018;20.010;2023-04-28T07:26:51;7.23;;;3.53;;
23898;SDS011;20544;50.018;20.010;2023-04-28T07:30:10;6.57;;;3.40;;
23898;SDS011;20544;50.018;20.010;2023-04-28T07:33:31;7.75;;;3.50;;
23898;SDS011;20544;50.018;20.010;2023-04-28T07:36:48;7.05;;;3.28;;
23898;SDS011;20544;50.018;20.010;2023-04-28T07:40:05;7.03;;;3.33;;
23898;SDS011;20544;50.018;20.010;2023-04-28T07:43:22;5.63;;;2.70;;
23898;SDS011;20544;50.018;20.010;2023-04-28T07:46:39;5.10;;;2.83;;
23898;SDS011;20544;50.018;20.010;2023-04-28T07:49:57;7.77;;;2.80;;
23898;SDS011;20544;50.018;20.010;2023-04-28T07:53:14;3.78;;;2.55;;
23898;SDS011;20544;50.018;20.010;2023-04-28T07:56:31;6.23;;;3.20;;
23898;SDS011;20544;50.018;20.010;2023-04-28T07:59:47;6.43;;;3.50;;
23898;SDS011;20544;50.018;20.010;2023-04-28T08:03:04;5.28;;;3.35;;
23898;SDS011;20544;50.018;20.010;2023-04-28T08:06:20;6.70;;;4.10;;
23898;SDS011;20544;50.018;20.010;2023-04-28T08:09:37;7.10;;;4.08;;
23898;SDS011;20544;50.018;20.010;2023-04-28T08:13:04;5.53;;;3.43;;
23898;SDS011;20544;50.018;20.010;2023-04-28T08:16:22;5.35;;;3.30;;
23898;SDS011;20544;50.018;20.010;2023-04-28T08:19:40;7.10;;;3.40;;
23898;SDS011;20544;50.018;20.010;2023-04-28T08:22:57;6.23;;;3.03;;
23898;SDS011;20544;50.018;20.010;2023-04-28T08:26:13;5.40;;;2.93;;
23898;SDS011;20544;50.018;20.010;2023-04-28T08:29:30;4.15;;;2.85;;
23898;SDS011;20544;50.018;20.010;2023-04-28T08:32:47;4.20;;;2.58;;
23898;SDS011;20544;50.018;20.010;2023-04-28T08:36:04;4.28;;;3.00;;
23898;SDS011;20544;50.018;20.010;2023-04-28T08:39:22;7.78;;;3.30;;
23898;SDS011;20544;50.018;20.010;2023-04-28T08:42:40;5.70;;;3.03;;
23898;SDS011;20544;50.018;20.010;2023-04-28T08:45:57;4.95;;;3.10;;
23898;SDS011;20544;50.018;20.010;2023-04-28T08:49:17;14.43;;;10.15;;
23898;SDS011;20544;50.018;20.010;2023-04-28T08:52:38;5.95;;;4.20;;
23898;SDS011;20544;50.018;20.010;2023-04-28T08:55:56;5.30;;;2.78;;
23898;SDS011;20544;50.018;20.010;2023-04-28T08:59:13;3.73;;;2.20;;
23898;SDS011;20544;50.018;20.010;2023-04-28T09:02:30;4.63;;;2.83;;
23898;SDS011;20544;50.018;20.010;2023-04-28T09:05:49;4.43;;;3.00;;
23898;SDS011;20544;50.018;20.010;2023-04-28T09:09:22;4.88;;;3.00;;
23898;SDS011;20544;50.018;20.010;2023-04-28T09:12:44;5.98;;;2.45;;
23898;SDS011;20544;50.018;20.010;2023-04-28T09:16:03;2.90;;;2.40;;
23898;SDS011;20544;50.018;20.010;2023-04-28T09:19:20;4.80;;;2.83;;
23898;SDS011;20544;50.018;20.010;2023-04-28T09:22:36;5.25;;;2.63;;
23898;SDS011;20544;50.018;20.010;2023-04-28T09:25:59;6.03;;;2.95;;
23898;SDS011;20544;50.018;20.010;2023-04-28T09:29:18;4.95;;;3.38;;
23898;SDS011;20544;50.018;20.010;2023-04-28T09:32:37;6.68;;;3.40;;
23898;SDS011;20544;50.018;20.010;2023-04-28T09:35:54;6.90;;;3.18;;
23898;SDS011;20544;50.018;20.010;2023-04-28T09:39:11;4.63;;;2.75;;
23898;SDS011;20544;50.018;20.010;2023-04-28T09:42:33;6.87;;;3.00;;
23898;SDS011;20544;50.018;20.010;2023-04-28T09:45:52;52.45;;;37.18;;
23898;SDS011;20544;50.018;20.010;2023-04-28T09:49:13;10.55;;;7.20;;
23898;SDS011;20544;50.018;20.010;2023-04-28T09:52:30;6.68;;;4.10;;
23898;SDS011;20544;50.018;20.010;2023-04-28T09:55:50;4.68;;;3.28;;
23898;SDS011;20544;50.018;20.010;2023-04-28T09:59:09;3.48;;;2.85;;
23898;SDS011;20544;50.018;20.010;2023-04-28T10:02:27;5.73;;;3.13;;
23898;SDS011;20544;50.018;20.010;2023-04-28T10:05:46;4.30;;;3.13;;
23898;SDS011;20544;50.018;20.010;2023-04-28T10:09:04;6.43;;;3.45;;
23898;SDS011;20544;50.018;20.010;2023-04-28T10:12:23;19.30;;;11.38;;
23898;SDS011;20544;50.018;20.010;2023-04-28T10:15:41;7.15;;;3.20;;
23898;SDS011;20544;50.018;20.010;2023-04-28T10:19:00;4.83;;;3.40;;
23898;SDS011;20544;50.018;20.010;2023-04-28T10:22:22;4.20;;;2.58;;
23898;SDS011;20544;50.018;20.010;2023-04-28T10:25:44;5.75;;;3.05;;
23898;SDS011;20544;50.018;20.010;2023-04-28T10:29:05;6.23;;;2.85;;
23898;SDS011;20544;50.018;20.010;2023-04-28T10:32:23;6.05;;;3.10;;
23898;SDS011;20544;50.018;20.010;2023-04-28T10:35:41;6.10;;;3.05;;
23898;SDS011;20544;50.018;20.010;2023-04-28T10:39:11;4.55;;;3.60;;
23898;SDS011;20544;50.018;20.010;2023-04-28T10:46:08;4.30;;;2.83;;
23898;SDS011;20544;50.018;20.010;2023-04-28T10:49:31;5.18;;;3.03;;
23898;SDS011;20544;50.018;20.010;2023-04-28T10:53:31;6.03;;;3.28;;
23898;SDS011;20544;50.018;20.010;2023-04-28T10:57:20;5.60;;;4.05;;
23898;SDS011;20544;50.018;20.010;2023-04-28T11:00:38;7.95;;;3.40;;
23898;SDS011;20544;50.018;20.010;2023-04-28T11:03:57;5.83;;;3.10;;
23898;SDS011;20544;50.018;20.010;2023-04-28T11:07:19;4.85;;;2.73;;
23898;SDS011;20544;50.018;20.010;2023-04-28T11:14:31;6.00;;;2.65;;
23898;SDS011;20544;50.018;20.010;2023-04-28T11:17:50;7.83;;;3.88;;
23898;SDS011;20544;50.018;20.010;2023-04-28T11:21:10;4.10;;;2.80;;
23898;SDS011;20544;50.018;20.010;2023-04-28T11:24:27;6.45;;;3.23;;
23898;SDS011;20544;50.018;20.010;2023-04-28T11:27:44;5.08;;;2.98;;
23898;SDS011;20544;50.018;20.010;2023-04-28T11:31:10;6.58;;;3.55;;
23898;SDS011;20544;50.018;20.010;2023-04-28T11:34:30;5.05;;;3.55;;
23898;SDS011;20544;50.018;20.010;2023-04-28T11:38:02;6.03;;;3.30;;
23898;SDS011;20544;50.018;20.010;2023-04-28T11:41:19;7.15;;;3.65;;
23898;SDS011;20544;50.018;20.010;2023-04-28T11:44:52;5.13;;;2.58;;
23898;SDS011;20544;50.018;20.010;2023-04-28T11:48:20;4.93;;;3.08;;
23898;SDS011;20544;50.018;20.010;2023-04-28T11:51:37;5.63;;;3.00;;
23898;SDS011;20544;50.018;20.010;2023-04-28T11:54:56;6.58;;;3.00;;
23898;SDS011;20544;50.018;20.010;2023-04-28T11:58:19;7.30;;;3.25;;
23898;SDS011;20544;50.018;20.010;2023-04-28T12:01:44;5.60;;;3.13;;
23898;SDS011;20544;50.018;20.010;2023-04-28T12:05:06;10.60;;;6.88;;
23898;SDS011;20544;50.018;20.010;2023-04-28T12:08:29;6.00;;;3.35;;
23898;SDS011;20544;50.018;20.010;2023-04-28T12:12:06;6.80;;;3.80;;
23898;SDS011;20544;50.018;20.010;2023-04-28T12:15:38;6.95;;;3.18;;
23898;SDS011;20544;50.018;20.010;2023-04-28T12:18:58;8.13;;;2.95;;
23898;SDS011;20544;50.018;20.010;2023-04-28T12:22:17;5.30;;;3.08;;
23898;SDS011;20544;50.018;20.010;2023-04-28T12:25:43;7.80;;;4.30;;
23898;SDS011;20544;50.018;20.010;2023-04-28T12:29:00;8.10;;;4.18;;
23898;SDS011;20544;50.018;20.010;2023-04-28T12:32:16;6.68;;;3.35;;
23898;SDS011;20544;50.018;20.010;2023-04-28T12:35:35;6.43;;;3.73;;
23898;SDS011;20544;50.018;20.010;2023-04-28T12:38:54;6.70;;;4.85;;
23898;SDS011;20544;50.018;20.010;2023-04-28T12:42:10;6.63;;;3.58;;
23898;SDS011;20544;50.018;20.010;2023-04-28T12:45:28;10.48;;;5.00;;
23898;SDS011;20544;50.018;20.010;2023-04-28T12:48:45;6.48;;;3.95;;
23898;SDS011;20544;50.018;20.010;2023-04-28T12:52:03;7.05;;;4.68;;
23898;SDS011;20544;50.018;20.010;2023-04-28T12:55:25;6.53;;;3.40;;
23898;SDS011;20544;50.018;20.010;2023-04-28T12:58:42;5.60;;;2.93;;
23898;SDS011;20544;50.018;20.010;2023-04-28T13:01:58;4.48;;;3.45;;
23898;SDS011;20544;50.018;20.010;2023-04-28T13:05:14;7.08;;;3.40;;
23898;SDS011;20544;50.018;20.010;2023-04-28T13:08:31;10.23;;;4.18;;
23898;SDS011;20544;50.018;20.010;2023-04-28T13:11:50;10.10;;;4.00;;
23898;SDS011;20544;50.018;20.010;2023-04-28T13:15:10;7.83;;;3.50;;
23898;SDS011;20544;50.018;20.010;2023-04-28T13:18:26;5.63;;;3.20;;
23898;SDS011;20544;50.018;20.010;2023-04-28T13:21:43;5.50;;;3.30;;
23898;SDS011;20544;50.018;20.010;2023-04-28T13:25:00;5.60;;;3.45;;
23898;SDS011;20544;50.018;20.010;2023-04-28T13:28:17;4.90;;;3.20;;
23898;SDS011;20544;50.018;20.010;2023-04-28T13:31:35;6.53;;;3.75;;
23898;SDS011;20544;50.018;20.010;2023-04-28T13:34:51;4.63;;;3.38;;
23898;SDS011;20544;50.018;20.010;2023-04-28T13:38:10;5.90;;;3.28;;
23898;SDS011;20544;50.018;20.010;2023-04-28T13:41:27;7.30;;;2.88;;
23898;SDS011;20544;50.018;20.010;2023-04-28T13:44:43;7.25;;;3.13;;
23898;SDS011;20544;50.018;20.010;2023-04-28T13:48:00;5.78;;;3.30;;
23898;SDS011;20544;50.018;20.010;2023-04-28T13:51:18;7.85;;;3.90;;
23898;SDS011;20544;50.018;20.010;2023-04-28T13:54:34;6.40;;;3.63;;
23898;SDS011;20544;50.018;20.010;2023-04-28T13:57:53;7.15;;;3.40;;
23898;SDS011;20544;50.018;20.010;2023-04-28T14:01:12;7.88;;;3.85;;
23898;SDS011;20544;50.018;20.010;2023-04-28T14:04:28;6.13;;;3.30;;
23898;SDS011;20544;50.018;20.010;2023-04-28T14:07:45;5.25;;;3.75;;
23898;SDS011;20544;50.018;20.010;2023-04-28T14:11:01;6.10;;;4.00;;
23898;SDS011;20544;50.018;20.010;2023-04-28T14:14:18;6.18;;;3.50;;
23898;SDS011;20544;50.018;20.010;2023-04-28T14:17:34;8.23;;;3.70;;
23898;SDS011;20544;50.018;20.010;2023-04-28T14:20:51;43.48;;;31.30;;
23898;SDS011;20544;50.018;20.010;2023-04-28T14:24:22;13.08;;;8.08;;
23898;SDS011;20544;50.018;20.010;2023-04-28T14:27:39;11.43;;;7.25;;
23898;SDS011;20544;50.018;20.010;2023-04-28T14:30:55;7.30;;;4.25;;
23898;SDS011;20544;50.018;20.010;2023-04-28T14:34:15;8.30;;;4.00;;
23898;SDS011;20544;50.018;20.010;2023-04-28T14:37:33;6.43;;;3.90;;
23898;SDS011;20544;50.018;20.010;2023-04-28T14:40:49;5.33;;;3.10;;
23898;SDS011;20544;50.018;20.010;2023-04-28T14:44:06;15.58;;;12.00;;
23898;SDS011;20544;50.018;20.010;2023-04-28T14:47:23;6.73;;;4.15;;
23898;SDS011;20544;50.018;20.010;2023-04-28T14:50:40;5.75;;;3.53;;
23898;SDS011;20544;50.018;20.010;2023-04-28T14:53:57;40.28;;;26.23;;
23898;SDS011;20544;50.018;20.010;2023-04-28T14:57:15;11.28;;;7.85;;
23898;SDS011;20544;50.018;20.010;2023-04-28T15:00:31;9.63;;;3.80;;
23898;SDS011;20544;50.018;20.010;2023-04-28T15:03:48;6.30;;;4.10;;
23898;SDS011;20544;50.018;20.010;2023-04-28T15:07:05;9.80;;;7.15;;
23898;SDS011;20544;50.018;20.010;2023-04-28T15:10:21;6.83;;;3.70;;
23898;SDS011;20544;50.018;20.010;2023-04-28T15:13:38;6.55;;;4.20;;
23898;SDS011;20544;50.018;20.010;2023-04-28T15:16:54;4.48;;;2.90;;
23898;SDS011;20544;50.018;20.010;2023-04-28T15:20:10;6.13;;;3.13;;
23898;SDS011;20544;50.018;20.010;2023-04-28T15:23:27;9.18;;;5.08;;
23898;SDS011;20544;50.018;20.010;2023-04-28T15:26:43;6.68;;;3.55;;
23898;SDS011;20544;50.018;20.010;2023-04-28T15:30:00;4.78;;;3.03;;
23898;SDS011;20544;50.018;20.010;2023-04-28T15:33:17;4.98;;;3.00;;
23898;SDS011;20544;50.018;20.010;2023-04-28T15:36:34;5.90;;;3.08;;
23898;SDS011;20544;50.018;20.010;2023-04-28T15:39:51;7.63;;;3.53;;
23898;SDS011;20544;50.018;20.010;2023-04-28T15:43:08;6.60;;;2.70;;
23898;SDS011;20544;50.018;20.010;2023-04-28T15:46:24;7.93;;;3.10;;
23898;SDS011;20544;50.018;20.010;2023-04-28T15:49:40;6.80;;;3.13;;
23898;SDS011;20544;50.018;20.010;2023-04-28T15:52:57;7.48;;;3.25;;
23898;SDS011;20544;50.018;20.010;2023-04-28T15:56:14;6.90;;;3.08;;
23898;SDS011;20544;50.018;20.010;2023-04-28T15:59:30;7.25;;;3.10;;
23898;SDS011;20544;50.018;20.010;2023-04-28T16:02:47;6.43;;;3.03;;
23898;SDS011;20544;50.018;20.010;2023-04-28T16:06:04;55.50;;;35.90;;
23898;SDS011;20544;50.018;20.010;2023-04-28T16:09:21;14.60;;;10.05;;
23898;SDS011;20544;50.018;20.010;2023-04-28T16:12:38;3.95;;;2.58;;
23898;SDS011;20544;50.018;20.010;2023-04-28T16:15:55;4.40;;;2.68;;
23898;SDS011;20544;50.018;20.010;2023-04-28T16:19:15;6.25;;;2.80;;
23898;SDS011;20544;50.018;20.010;2023-04-28T16:22:32;6.28;;;2.63;;
23898;SDS011;20544;50.018;20.010;2023-04-28T16:25:49;4.28;;;2.48;;
23898;SDS011;20544;50.018;20.010;2023-04-28T16:29:06;6.75;;;2.75;;
23898;SDS011;20544;50.018;20.010;2023-04-28T16:32:22;5.78;;;2.55;;
23898;SDS011;20544;50.018;20.010;2023-04-28T16:35:39;5.33;;;2.90;;
23898;SDS011;20544;50.018;20.010;2023-04-28T16:38:55;6.78;;;2.63;;
23898;SDS011;20544;50.018;20.010;2023-04-28T16:42:12;5.65;;;2.78;;
23898;SDS011;20544;50.018;20.010;2023-04-28T16:45:28;6.10;;;3.48;;
23898;SDS011;20544;50.018;20.010;2023-04-28T16:48:48;5.88;;;2.70;;
23898;SDS011;20544;50.018;20.010;2023-04-28T16:52:04;5.13;;;2.90;;
23898;SDS011;20544;50.018;20.010;2023-04-28T16:55:21;6.05;;;2.93;;
23898;SDS011;20544;50.018;20.010;2023-04-28T16:58:37;5.68;;;3.10;;
23898;SDS011;20544;50.018;20.010;2023-04-28T17:01:54;5.53;;;2.98;;
23898;SDS011;20544;50.018;20.010;2023-04-28T17:05:13;5.78;;;2.55;;
23898;SDS011;20544;50.018;20.010;2023-04-28T17:08:30;4.85;;;2.90;;
23898;SDS011;20544;50.018;20.010;2023-04-28T17:11:47;6.48;;;2.78;;
23898;SDS011;20544;50.018;20.010;2023-04-28T17:15:04;5.70;;;2.90;;
23898;SDS011;20544;50.018;20.010;2023-04-28T17:18:27;8.00;;;3.05;;
23898;SDS011;20544;50.018;20.010;2023-04-28T17:21:44;4.88;;;2.63;;
23898;SDS011;20544;50.018;20.010;2023-04-28T17:25:01;6.10;;;3.30;;
23898;SDS011;20544;50.018;20.010;2023-04-28T17:28:20;9.37;;;3.30;;
23898;SDS011;20544;50.018;20.010;2023-04-28T17:31:36;4.90;;;2.65;;
23898;SDS011;20544;50.018;20.010;2023-04-28T17:34:54;6.13;;;3.30;;
23898;SDS011;20544;50.018;20.010;2023-04-28T17:38:11;55.58;;;39.05;;
23898;SDS011;20544;50.018;20.010;2023-04-28T17:41:37;13.68;;;6.90;;
23898;SDS011;20544;50.018;20.010;2023-04-28T17:44:55;8.38;;;3.80;;
23898;SDS011;20544;50.018;20.010;2023-04-28T17:48:13;9.33;;;4.00;;
23898;SDS011;20544;50.018;20.010;2023-04-28T17:51:29;8.93;;;4.23;;
23898;SDS011;20544;50.018;20.010;2023-04-28T17:54:46;8.40;;;4.28;;
23898;SDS011;20544;50.018;20.010;2023-04-28T17:58:02;6.38;;;4.33;;
23898;SDS011;20544;50.018;20.010;2023-04-28T18:01:19;8.10;;;3.60;;
23898;SDS011;20544;50.018;20.010;2023-04-28T18:04:36;7.73;;;4.30;;
23898;SDS011;20544;50.018;20.010;2023-04-28T18:07:53;7.58;;;4.28;;
23898;SDS011;20544;50.018;20.010;2023-04-28T18:11:11;6.53;;;3.95;;
23898;SDS011;20544;50.018;20.010;2023-04-28T18:14:30;6.88;;;4.13;;
23898;SDS011;20544;50.018;20.010;2023-04-28T18:17:47;8.88;;;5.30;;
23898;SDS011;20544;50.018;20.010;2023-04-28T18:21:03;6.93;;;4.63;;
23898;SDS011;20544;50.018;20.010;2023-04-28T18:24:20;8.23;;;5.13;;
23898;SDS011;20544;50.018;20.010;2023-04-28T18:27:37;10.23;;;5.15;;
23898;SDS011;20544;50.018;20.010;2023-04-28T18:30:53;12.00;;;6.25;;
23898;SDS011;20544;50.018;20.010;2023-04-28T18:34:05;9.05;;;5.30;;
23898;SDS011;20544;50.018;20.010;2023-04-28T18:37:21;9.95;;;5.30;;
23898;SDS011;20544;50.018;20.010;2023-04-28T18:40:38;9.03;;;5.23;;
23898;SDS011;20544;50.018;20.010;2023-04-28T18:43:55;47.08;;;30.98;;
23898;SDS011;20544;50.018;20.010;2023-04-28T18:47:12;14.90;;;6.65;;
23898;SDS011;20544;50.018;20.010;2023-04-28T18:50:29;10.85;;;5.85;;
23898;SDS011;20544;50.018;20.010;2023-04-28T18:53:46;7.90;;;4.98;;
23898;SDS011;20544;50.018;20.010;2023-04-28T18:57:03;10.83;;;5.20;;
23898;SDS011;20544;50.018;20.010;2023-04-28T19:00:20;11.20;;;5.55;;
23898;SDS011;20544;50.018;20.010;2023-04-28T19:03:40;8.88;;;5.35;;
23898;SDS011;20544;50.018;20.010;2023-04-28T19:06:57;10.35;;;5.28;;
23898;SDS011;20544;50.018;20.010;2023-04-28T19:10:14;9.93;;;6.28;;
23898;SDS011;20544;50.018;20.010;2023-04-28T19:13:31;8.68;;;5.88;;
23898;SDS011;20544;50.018;20.010;2023-04-28T19:16:50;11.45;;;6.13;;
23898;SDS011;20544;50.018;20.010;2023-04-28T19:20:08;16.65;;;7.10;;
23898;SDS011;20544;50.018;20.010;2023-04-28T19:23:25;11.38;;;6.65;;
23898;SDS011;20544;50.018;20.010;2023-04-28T19:26:44;10.65;;;7.23;;
23898;SDS011;20544;50.018;20.010;2023-04-28T19:30:03;12.33;;;7.53;;
23898;SDS011;20544;50.018;20.010;2023-04-28T19:33:22;11.83;;;7.10;;
23898;SDS011;20544;50.018;20.010;2023-04-28T19:36:40;12.83;;;8.15;;
23898;SDS011;20544;50.018;20.010;2023-04-28T19:39:57;15.58;;;8.73;;
23898;SDS011;20544;50.018;20.010;2023-04-28T19:43:15;10.75;;;7.78;;
23898;SDS011;20544;50.018;20.010;2023-04-28T19:46:32;10.15;;;7.20;;
23898;SDS011;20544;50.018;20.010;2023-04-28T19:49:50;11.18;;;7.35;;
23898;SDS011;20544;50.018;20.010;2023-04-28T19:53:07;13.20;;;7.88;;
23898;SDS011;20544;50.018;20.010;2023-04-28T19:56:25;10.15;;;7.13;;
23898;SDS011;20544;50.018;20.010;2023-04-28T19:59:41;17.95;;;7.63;;
23898;SDS011;20544;50.018;20.010;2023-04-28T20:02:58;12.28;;;7.73;;